sensor_id;sensor_type;location;lat;lon;timestamp;temperature;humidity
71942;DHT22;59997;53.300;-6.260;2023-04-01T00:01:18;9.21;90.81
71942;DHT22;59997;53.300;-6.260;2023-04-01T00:03:44;9.22;90.79
71942;DHT22;59997;53.300;-6.260;2023-04-01T00:06:15;9.20;90.82
71942;DHT22;59997;53.300;-6.260;2023-04-01T00:08:41;9.17;90.87
71942;DHT22;59997;53.300;-6.260;2023-04-01T00:11:06;9.13;90.96
71942;DHT22;59997;53.300;-6.260;2023-04-01T00:13:32;9.20;90.87
71942;DHT22;59997;53.300;-6.260;2023-04-01T00:15:57;9.20;90.83
71942;DHT22;59997;53.300;-6.260;2023-04-01T00:18:23;9.18;90.89
71942;DHT22;59997;53.300;-6.260;2023-04-01T00:20:51;9.24;90.90
71942;DHT22;59997;53.300;-6.260;2023-04-01T00:23:18;9.22;90.91
71942;DHT22;59997;53.300;-6.260;2023-04-01T00:25:45;9.24;90.85
71942;DHT22;59997;53.300;-6.260;2023-04-01T00:28:16;9.21;90.89
71942;DHT22;59997;53.300;-6.260;2023-04-01T00:30:42;9.25;90.85
71942;DHT22;59997;53.300;-6.260;2023-04-01T00:33:07;9.27;90.80
71942;DHT22;59997;53.300;-6.260;2023-04-01T00:35:33;9.22;90.77
71942;DHT22;59997;53.300;-6.260;2023-04-01T00:37:58;9.21;90.91
71942;DHT22;59997;53.300;-6.260;2023-04-01T00:40:33;9.21;90.89
71942;DHT22;59997;53.300;-6.260;2023-04-01T00:43:00;9.18;90.92
71942;DHT22;59997;53.300;-6.260;2023-04-01T00:45:38;9.20;90.97
71942;DHT22;59997;53.300;-6.260;2023-04-01T00:48:19;9.30;90.93
71942;DHT22;59997;53.300;-6.260;2023-04-01T00:50:53;9.27;90.77
71942;DHT22;59997;53.300;-6.260;2023-04-01T00:53:21;9.27;90.71
71942;DHT22;59997;53.300;-6.260;2023-04-01T00:55:54;9.24;90.75
71942;DHT22;59997;53.300;-6.260;2023-04-01T00:58:23;9.28;90.76
71942;DHT22;59997;53.300;-6.260;2023-04-01T01:00:50;9.28;90.78
71942;DHT22;59997;53.300;-6.260;2023-04-01T01:03:16;9.25;90.82
71942;DHT22;59997;53.300;-6.260;2023-04-01T01:11:43;9.24;90.82
71942;DHT22;59997;53.300;-6.260;2023-04-01T01:16:53;9.18;90.80
71942;DHT22;59997;53.300;-6.260;2023-04-01T01:27:20;9.15;90.85
71942;DHT22;59997;53.300;-6.260;2023-04-01T01:35:20;9.13;90.93
71942;DHT22;59997;53.300;-6.260;2023-04-01T01:37:47;9.15;90.87
71942;DHT22;59997;53.300;-6.260;2023-04-01T01:40:16;9.15;90.87
71942;DHT22;59997;53.300;-6.260;2023-04-01T01:42:46;9.15;90.86
71942;DHT22;59997;53.300;-6.260;2023-04-01T01:45:15;9.11;90.84
71942;DHT22;59997;53.300;-6.260;2023-04-01T01:47:43;9.11;90.85
71942;DHT22;59997;53.300;-6.260;2023-04-01T01:50:10;9.10;90.76
71942;DHT22;59997;53.300;-6.260;2023-04-01T01:52:36;9.04;90.79
71942;DHT22;59997;53.300;-6.260;2023-04-01T01:55:03;9.04;90.81
71942;DHT22;59997;53.300;-6.260;2023-04-01T01:57:32;9.06;90.80
71942;DHT22;59997;53.300;-6.260;2023-04-01T02:00:04;9.06;90.80
71942;DHT22;59997;53.300;-6.260;2023-04-01T02:02:45;9.04;90.73
71942;DHT22;59997;53.300;-6.260;2023-04-01T02:05:16;9.01;90.84
71942;DHT22;59997;53.300;-6.260;2023-04-01T02:07:44;8.99;90.84
71942;DHT22;59997;53.300;-6.260;2023-04-01T02:10:12;9.00;90.84
71942;DHT22;59997;53.300;-6.260;2023-04-01T02:12:38;8.99;90.93
71942;DHT22;59997;53.300;-6.260;2023-04-01T02:15:11;9.03;90.94
71942;DHT22;59997;53.300;-6.260;2023-04-01T02:17:43;9.00;90.92
71942;DHT22;59997;53.300;-6.260;2023-04-01T02:20:16;8.96;90.94
71942;DHT22;59997;53.300;-6.260;2023-04-01T02:22:56;9.00;91.00
71942;DHT22;59997;53.300;-6.260;2023-04-01T02:25:29;8.99;90.93
71942;DHT22;59997;53.300;-6.260;2023-04-01T02:27:57;9.00;90.96
71942;DHT22;59997;53.300;-6.260;2023-04-01T02:30:23;8.97;90.92
71942;DHT22;59997;53.300;-6.260;2023-04-01T02:32:50;8.99;90.95
71942;DHT22;59997;53.300;-6.260;2023-04-01T02:35:17;8.96;90.93
71942;DHT22;59997;53.300;-6.260;2023-04-01T02:37:44;8.99;91.01
71942;DHT22;59997;53.300;-6.260;2023-04-01T02:40:13;8.97;90.96
71942;DHT22;59997;53.300;-6.260;2023-04-01T02:42:39;8.94;90.93
71942;DHT22;59997;53.300;-6.260;2023-04-01T02:45:05;9.00;90.96
71942;DHT22;59997;53.300;-6.260;2023-04-01T02:47:31;8.97;90.94
71942;DHT22;59997;53.300;-6.260;2023-04-01T02:49:57;8.97;90.99
71942;DHT22;59997;53.300;-6.260;2023-04-01T02:52:30;8.97;91.05
71942;DHT22;59997;53.300;-6.260;2023-04-01T02:54:56;8.90;91.07
71942;DHT22;59997;53.300;-6.260;2023-04-01T02:57:22;8.91;91.08
71942;DHT22;59997;53.300;-6.260;2023-04-01T02:59:47;8.91;91.11
71942;DHT22;59997;53.300;-6.260;2023-04-01T03:02:13;8.94;91.10
71942;DHT22;59997;53.300;-6.260;2023-04-01T03:04:39;8.90;91.09
71942;DHT22;59997;53.300;-6.260;2023-04-01T03:07:04;8.90;91.18
71942;DHT22;59997;53.300;-6.260;2023-04-01T03:09:30;8.90;91.20
71942;DHT22;59997;53.300;-6.260;2023-04-01T03:11:55;8.93;91.17
71942;DHT22;59997;53.300;-6.260;2023-04-01T03:14:21;8.94;91.14
71942;DHT22;59997;53.300;-6.260;2023-04-01T03:16:46;8.96;91.13
71942;DHT22;59997;53.300;-6.260;2023-04-01T03:19:12;8.96;91.08
71942;DHT22;59997;53.300;-6.260;2023-04-01T03:21:37;8.93;91.09
71942;DHT22;59997;53.300;-6.260;2023-04-01T03:24:03;8.94;91.17
71942;DHT22;59997;53.300;-6.260;2023-04-01T03:26:29;8.94;91.13
71942;DHT22;59997;53.300;-6.260;2023-04-01T03:28:55;8.96;91.15
71942;DHT22;59997;53.300;-6.260;2023-04-01T03:31:21;8.96;91.17
71942;DHT22;59997;53.300;-6.260;2023-04-01T03:33:46;8.99;91.12
71942;DHT22;59997;53.300;-6.260;2023-04-01T03:36:12;8.97;91.06
71942;DHT22;59997;53.300;-6.260;2023-04-01T03:38:39;8.93;91.13
71942;DHT22;59997;53.300;-6.260;2023-04-01T03:41:05;8.94;91.16
71942;DHT22;59997;53.300;-6.260;2023-04-01T03:43:30;8.99;91.08
71942;DHT22;59997;53.300;-6.260;2023-04-01T03:45:56;8.94;91.07
71942;DHT22;59997;53.300;-6.260;2023-04-01T03:48:23;8.94;91.10
71942;DHT22;59997;53.300;-6.260;2023-04-01T03:50:49;8.93;91.12
71942;DHT22;59997;53.300;-6.260;2023-04-01T03:53:14;8.91;91.06
71942;DHT22;59997;53.300;-6.260;2023-04-01T03:55:40;8.94;91.07
71942;DHT22;59997;53.300;-6.260;2023-04-01T03:58:06;8.94;91.05
71942;DHT22;59997;53.300;-6.260;2023-04-01T04:00:32;8.89;91.02
71942;DHT22;59997;53.300;-6.260;2023-04-01T04:02:58;8.90;91.03
71942;DHT22;59997;53.300;-6.260;2023-04-01T04:05:24;8.89;91.09
71942;DHT22;59997;53.300;-6.260;2023-04-01T04:07:50;8.89;91.08
71942;DHT22;59997;53.300;-6.260;2023-04-01T04:10:16;8.87;91.09
71942;DHT22;59997;53.300;-6.260;2023-04-01T04:12:42;8.87;91.12
71942;DHT22;59997;53.300;-6.260;2023-04-01T04:15:08;8.84;91.11
71942;DHT22;59997;53.300;-6.260;2023-04-01T04:17:34;8.83;91.10
71942;DHT22;59997;53.300;-6.260;2023-04-01T04:20:01;8.83;91.11
71942;DHT22;59997;53.300;-6.260;2023-04-01T04:22:26;8.84;91.13
71942;DHT22;59997;53.300;-6.260;2023-04-01T04:24:52;8.84;91.17
71942;DHT22;59997;53.300;-6.260;2023-04-01T04:27:17;8.81;91.20
71942;DHT22;59997;53.300;-6.260;2023-04-01T04:29:43;8.80;91.24
71942;DHT22;59997;53.300;-6.260;2023-04-01T04:32:09;8.80;91.31
71942;DHT22;59997;53.300;-6.260;2023-04-01T04:34:34;8.80;91.26
71942;DHT22;59997;53.300;-6.260;2023-04-01T04:37:00;8.83;91.29
71942;DHT22;59997;53.300;-6.260;2023-04-01T04:39:26;8.76;91.27
71942;DHT22;59997;53.300;-6.260;2023-04-01T04:41:51;8.73;91.35
71942;DHT22;59997;53.300;-6.260;2023-04-01T04:44:17;8.76;91.38
71942;DHT22;59997;53.300;-6.260;2023-04-01T04:46:42;8.80;91.34
71942;DHT22;59997;53.300;-6.260;2023-04-01T04:49:08;8.75;91.39
71942;DHT22;59997;53.300;-6.260;2023-04-01T04:51:33;8.76;91.41
71942;DHT22;59997;53.300;-6.260;2023-04-01T04:54:02;8.79;91.40
71942;DHT22;59997;53.300;-6.260;2023-04-01T04:56:27;8.79;91.40
71942;DHT22;59997;53.300;-6.260;2023-04-01T04:58:53;8.80;91.36
71942;DHT22;59997;53.300;-6.260;2023-04-01T05:01:19;8.77;91.32
71942;DHT22;59997;53.300;-6.260;2023-04-01T05:03:45;8.77;91.30
71942;DHT22;59997;53.300;-6.260;2023-04-01T05:06:12;8.81;91.29
71942;DHT22;59997;53.300;-6.260;2023-04-01T05:08:39;8.81;91.28
71942;DHT22;59997;53.300;-6.260;2023-04-01T05:11:07;8.80;91.24
71942;DHT22;59997;53.300;-6.260;2023-04-01T05:13:35;8.77;91.25
71942;DHT22;59997;53.300;-6.260;2023-04-01T05:16:01;8.80;91.29
71942;DHT22;59997;53.300;-6.260;2023-04-01T05:18:27;8.81;91.18
71942;DHT22;59997;53.300;-6.260;2023-04-01T05:20:53;8.81;91.12
71942;DHT22;59997;53.300;-6.260;2023-04-01T05:23:20;8.80;91.20
71942;DHT22;59997;53.300;-6.260;2023-04-01T05:25:47;8.72;91.18
71942;DHT22;59997;53.300;-6.260;2023-04-01T05:28:13;8.62;91.26
71942;DHT22;59997;53.300;-6.260;2023-04-01T05:30:42;8.66;91.38
71942;DHT22;59997;53.300;-6.260;2023-04-01T05:33:09;8.73;91.29
71942;DHT22;59997;53.300;-6.260;2023-04-01T05:35:34;8.72;91.26
71942;DHT22;59997;53.300;-6.260;2023-04-01T05:38:01;8.69;91.19
71942;DHT22;59997;53.300;-6.260;2023-04-01T05:40:27;8.69;91.21
71942;DHT22;59997;53.300;-6.260;2023-04-01T05:42:53;8.70;91.19
71942;DHT22;59997;53.300;-6.260;2023-04-01T05:45:18;8.70;91.21
71942;DHT22;59997;53.300;-6.260;2023-04-01T05:47:44;8.69;91.24
71942;DHT22;59997;53.300;-6.260;2023-04-01T05:50:10;8.68;91.29
71942;DHT22;59997;53.300;-6.260;2023-04-01T05:52:36;8.70;91.25
71942;DHT22;59997;53.300;-6.260;2023-04-01T05:55:02;8.66;91.28
71942;DHT22;59997;53.300;-6.260;2023-04-01T05:57:28;8.70;91.33
71942;DHT22;59997;53.300;-6.260;2023-04-01T05:59:53;8.68;91.28
71942;DHT22;59997;53.300;-6.260;2023-04-01T06:02:19;8.65;91.32
71942;DHT22;59997;53.300;-6.260;2023-04-01T06:04:45;8.69;91.32
71942;DHT22;59997;53.300;-6.260;2023-04-01T06:07:15;8.72;91.28
71942;DHT22;59997;53.300;-6.260;2023-04-01T06:09:42;8.72;91.26
71942;DHT22;59997;53.300;-6.260;2023-04-01T06:25:25;8.83;91.18
71942;DHT22;59997;53.300;-6.260;2023-04-01T06:30:53;8.86;91.16
71942;DHT22;59997;53.300;-6.260;2023-04-01T06:39:20;9.00;91.20
71942;DHT22;59997;53.300;-6.260;2023-04-01T06:53:38;8.99;91.02
71942;DHT22;59997;53.300;-6.260;2023-04-01T06:56:09;8.94;91.01
71942;DHT22;59997;53.300;-6.260;2023-04-01T06:58:44;8.87;90.87
71942;DHT22;59997;53.300;-6.260;2023-04-01T07:01:14;8.87;90.87
71942;DHT22;59997;53.300;-6.260;2023-04-01T07:03:50;8.84;90.81
71942;DHT22;59997;53.300;-6.260;2023-04-01T07:06:28;8.83;90.73
71942;DHT22;59997;53.300;-6.260;2023-04-01T07:08:58;8.83;90.69
71942;DHT22;59997;53.300;-6.260;2023-04-01T07:11:34;8.84;90.73
71942;DHT22;59997;53.300;-6.260;2023-04-01T07:19:18;8.86;90.60
71942;DHT22;59997;53.300;-6.260;2023-04-01T07:21:52;8.91;90.69
71942;DHT22;59997;53.300;-6.260;2023-04-01T07:26:45;8.97;90.49
71942;DHT22;59997;53.300;-6.260;2023-04-01T07:29:12;9.03;90.48
71942;DHT22;59997;53.300;-6.260;2023-04-01T07:37:17;8.93;90.71
71942;DHT22;59997;53.300;-6.260;2023-04-01T07:39:57;8.91;90.78
71942;DHT22;59997;53.300;-6.260;2023-04-01T07:56:33;8.87;90.34
71942;DHT22;59997;53.300;-6.260;2023-04-01T08:07:22;8.86;90.49
71942;DHT22;59997;53.300;-6.260;2023-04-01T08:20:14;8.75;90.94
71942;DHT22;59997;53.300;-6.260;2023-04-01T08:22:49;8.81;90.97
71942;DHT22;59997;53.300;-6.260;2023-04-01T08:25:25;8.86;90.80
71942;DHT22;59997;53.300;-6.260;2023-04-01T08:30:40;9.10;90.40
71942;DHT22;59997;53.300;-6.260;2023-04-01T08:33:43;9.03;90.32
71942;DHT22;59997;53.300;-6.260;2023-04-01T08:36:06;9.15;90.28
71942;DHT22;59997;53.300;-6.260;2023-04-01T08:38:44;9.11;90.21
71942;DHT22;59997;53.300;-6.260;2023-04-01T08:56:18;9.24;89.76
71942;DHT22;59997;53.300;-6.260;2023-04-01T09:04:44;9.41;89.23
71942;DHT22;59997;53.300;-6.260;2023-04-01T09:19:14;9.63;88.62
71942;DHT22;59997;53.300;-6.260;2023-04-01T09:29:23;9.82;88.14
71942;DHT22;59997;53.300;-6.260;2023-04-01T09:32:13;9.73;88.30
71942;DHT22;59997;53.300;-6.260;2023-04-01T09:35:00;9.74;88.22
71942;DHT22;59997;53.300;-6.260;2023-04-01T09:37:33;9.83;88.46
71942;DHT22;59997;53.300;-6.260;2023-04-01T09:40:18;10.04;87.93
71942;DHT22;59997;53.300;-6.260;2023-04-01T09:43:06;10.24;87.87
71942;DHT22;59997;53.300;-6.260;2023-04-01T09:46:14;10.42;87.39
71942;DHT22;59997;53.300;-6.260;2023-04-01T09:49:00;10.57;87.30
71942;DHT22;59997;53.300;-6.260;2023-04-01T09:57:46;11.26;86.28
71942;DHT22;59997;53.300;-6.260;2023-04-01T10:00:30;11.28;86.06
71942;DHT22;59997;53.300;-6.260;2023-04-01T10:03:05;11.26;85.76
71942;DHT22;59997;53.300;-6.260;2023-04-01T10:20:19;10.78;86.25
71942;DHT22;59997;53.300;-6.260;2023-04-01T10:28:53;11.49;85.50
71942;DHT22;59997;53.300;-6.260;2023-04-01T10:37:23;11.22;85.30
71942;DHT22;59997;53.300;-6.260;2023-04-01T10:43:16;11.32;84.88
71942;DHT22;59997;53.300;-6.260;2023-04-01T11:03:46;11.22;85.34
71942;DHT22;59997;53.300;-6.260;2023-04-01T11:09:26;11.02;84.12
71942;DHT22;59997;53.300;-6.260;2023-04-01T11:15:18;10.84;85.35
71942;DHT22;59997;53.300;-6.260;2023-04-01T11:32:37;11.05;83.04
71942;DHT22;59997;53.300;-6.260;2023-04-01T11:40:40;12.26;82.02
71942;DHT22;59997;53.300;-6.260;2023-04-01T11:48:38;12.29;81.42
71942;DHT22;59997;53.300;-6.260;2023-04-01T11:51:26;12.64;80.97
71942;DHT22;59997;53.300;-6.260;2023-04-01T11:54:21;12.75;80.23
71942;DHT22;59997;53.300;-6.260;2023-04-01T12:14:03;12.64;79.56
71942;DHT22;59997;53.300;-6.260;2023-04-01T12:19:49;12.71;78.96
71942;DHT22;59997;53.300;-6.260;2023-04-01T12:22:34;12.37;78.64
71942;DHT22;59997;53.300;-6.260;2023-04-01T12:25:26;12.23;79.52
71942;DHT22;59997;53.300;-6.260;2023-04-01T12:31:05;12.51;78.91
71942;DHT22;59997;53.300;-6.260;2023-04-01T12:34:21;12.46;77.91
71942;DHT22;59997;53.300;-6.260;2023-04-01T12:45:38;12.96;80.00
71942;DHT22;59997;53.300;-6.260;2023-04-01T12:51:37;13.09;78.85
71942;DHT22;59997;53.300;-6.260;2023-04-01T12:57:18;13.87;75.46
71942;DHT22;59997;53.300;-6.260;2023-04-01T13:02:45;13.12;76.52
71942;DHT22;59997;53.300;-6.260;2023-04-01T13:05:19;13.23;76.90
71942;DHT22;59997;53.300;-6.260;2023-04-01T13:15:58;13.43;77.02
71942;DHT22;59997;53.300;-6.260;2023-04-01T13:18:55;13.46;77.61
71942;DHT22;59997;53.300;-6.260;2023-04-01T13:27:20;13.39;75.93
71942;DHT22;59997;53.300;-6.260;2023-04-01T13:32:59;12.92;76.98
71942;DHT22;59997;53.300;-6.260;2023-04-01T13:43:49;13.87;75.94
71942;DHT22;59997;53.300;-6.260;2023-04-01T13:49:29;13.61;75.71
71942;DHT22;59997;53.300;-6.260;2023-04-01T13:52:30;13.32;76.27
71942;DHT22;59997;53.300;-6.260;2023-04-01T14:00:55;12.65;77.95
71942;DHT22;59997;53.300;-6.260;2023-04-01T14:06:20;12.51;80.01
71942;DHT22;59997;53.300;-6.260;2023-04-01T14:11:36;12.05;79.54
71942;DHT22;59997;53.300;-6.260;2023-04-01T14:34:04;10.09;85.40
71942;DHT22;59997;53.300;-6.260;2023-04-01T14:36:43;10.01;85.75
71942;DHT22;59997;53.300;-6.260;2023-04-01T14:41:48;9.98;86.34
71942;DHT22;59997;53.300;-6.260;2023-04-01T14:49:48;9.49;88.19
71942;DHT22;59997;53.300;-6.260;2023-04-01T14:52:28;9.43;89.54
71942;DHT22;59997;53.300;-6.260;2023-04-01T14:54:56;9.43;90.87
71942;DHT22;59997;53.300;-6.260;2023-04-01T14:57:29;9.42;91.00
71942;DHT22;59997;53.300;-6.260;2023-04-01T15:05:47;9.74;90.60
71942;DHT22;59997;53.300;-6.260;2023-04-01T15:08:20;9.94;90.40
71942;DHT22;59997;53.300;-6.260;2023-04-01T15:10:52;9.93;90.24
71942;DHT22;59997;53.300;-6.260;2023-04-01T15:16:38;9.77;89.69
71942;DHT22;59997;53.300;-6.260;2023-04-01T15:26:52;9.35;90.17
71942;DHT22;59997;53.300;-6.260;2023-04-01T15:37:40;9.17;89.78
71942;DHT22;59997;53.300;-6.260;2023-04-01T15:54:15;9.06;90.20
71942;DHT22;59997;53.300;-6.260;2023-04-01T16:05:22;9.30;91.22
71942;DHT22;59997;53.300;-6.260;2023-04-01T16:11:19;9.32;91.39
71942;DHT22;59997;53.300;-6.260;2023-04-01T16:14:11;9.14;91.20
71942;DHT22;59997;53.300;-6.260;2023-04-01T16:17:00;8.99;91.19
71942;DHT22;59997;53.300;-6.260;2023-04-01T16:22:27;8.91;91.34
71942;DHT22;59997;53.300;-6.260;2023-04-01T16:25:29;8.87;91.28
71942;DHT22;59997;53.300;-6.260;2023-04-01T16:31:13;8.79;91.26
71942;DHT22;59997;53.300;-6.260;2023-04-01T16:36:16;8.56;91.38
71942;DHT22;59997;53.300;-6.260;2023-04-01T16:39:06;8.54;91.72
71942;DHT22;59997;53.300;-6.260;2023-04-01T16:41:36;8.54;91.77
71942;DHT22;59997;53.300;-6.260;2023-04-01T16:44:24;8.56;91.89
71942;DHT22;59997;53.300;-6.260;2023-04-01T16:46:58;8.61;92.01
71942;DHT22;59997;53.300;-6.260;2023-04-01T16:49:46;8.69;91.99
71942;DHT22;59997;53.300;-6.260;2023-04-01T16:52:16;8.70;92.00
71942;DHT22;59997;53.300;-6.260;2023-04-01T16:57:43;8.79;92.16
71942;DHT22;59997;53.300;-6.260;2023-04-01T17:00:37;8.73;92.04
71942;DHT22;59997;53.300;-6.260;2023-04-01T17:03:11;8.81;92.03
71942;DHT22;59997;53.300;-6.260;2023-04-01T17:11:03;9.06;91.81
71942;DHT22;59997;53.300;-6.260;2023-04-01T17:13:56;9.13;91.58
71942;DHT22;59997;53.300;-6.260;2023-04-01T17:21:54;9.21;91.21
71942;DHT22;59997;53.300;-6.260;2023-04-01T17:24:44;9.21;91.16
71942;DHT22;59997;53.300;-6.260;2023-04-01T17:35:20;9.00;90.42
71942;DHT22;59997;53.300;-6.260;2023-04-01T17:40:41;8.89;90.18
71942;DHT22;59997;53.300;-6.260;2023-04-01T17:43:52;8.83;89.91
71942;DHT22;59997;53.300;-6.260;2023-04-01T17:46:35;8.81;90.11
71942;DHT22;59997;53.300;-6.260;2023-04-01T17:49:23;8.83;89.89
71942;DHT22;59997;53.300;-6.260;2023-04-01T17:52:00;8.79;89.96
71942;DHT22;59997;53.300;-6.260;2023-04-01T18:30:32;8.54;89.96
71942;DHT22;59997;53.300;-6.260;2023-04-01T18:33:09;8.52;89.96
71942;DHT22;59997;53.300;-6.260;2023-04-01T18:38:13;8.52;89.79
71942;DHT22;59997;53.300;-6.260;2023-04-01T18:40:47;8.51;89.73
71942;DHT22;59997;53.300;-6.260;2023-04-01T18:43:30;8.46;89.92
71942;DHT22;59997;53.300;-6.260;2023-04-01T18:49:27;8.42;89.41
71942;DHT22;59997;53.300;-6.260;2023-04-01T18:52:03;8.41;89.46
71942;DHT22;59997;53.300;-6.260;2023-04-01T18:54:42;8.38;89.46
71942;DHT22;59997;53.300;-6.260;2023-04-01T18:57:15;8.35;89.50
71942;DHT22;59997;53.300;-6.260;2023-04-01T19:00:03;8.37;89.43
71942;DHT22;59997;53.300;-6.260;2023-04-01T19:02:36;8.40;89.19
71942;DHT22;59997;53.300;-6.260;2023-04-01T19:05:11;8.45;89.22
71942;DHT22;59997;53.300;-6.260;2023-04-01T19:07:47;8.42;89.33
71942;DHT22;59997;53.300;-6.260;2023-04-01T19:10:45;8.41;89.49
71942;DHT22;59997;53.300;-6.260;2023-04-01T19:29:12;8.37;88.00
71942;DHT22;59997;53.300;-6.260;2023-04-01T19:34:43;8.28;88.04
71942;DHT22;59997;53.300;-6.260;2023-04-01T19:37:40;8.19;88.06
71942;DHT22;59997;53.300;-6.260;2023-04-01T19:51:07;8.19;87.32
71942;DHT22;59997;53.300;-6.260;2023-04-01T19:56:39;8.24;86.29
71942;DHT22;59997;53.300;-6.260;2023-04-01T19:59:21;8.20;86.27
71942;DHT22;59997;53.300;-6.260;2023-04-01T20:01:59;8.17;86.66
71942;DHT22;59997;53.300;-6.260;2023-04-01T20:04:34;8.20;86.05
71942;DHT22;59997;53.300;-6.260;2023-04-01T20:10:02;8.17;86.09
71942;DHT22;59997;53.300;-6.260;2023-04-01T20:15:39;8.10;86.37
71942;DHT22;59997;53.300;-6.260;2023-04-01T20:18:18;8.17;85.76
71942;DHT22;59997;53.300;-6.260;2023-04-01T20:26:41;8.24;85.81
71942;DHT22;59997;53.300;-6.260;2023-04-01T20:37:32;8.17;85.77
71942;DHT22;59997;53.300;-6.260;2023-04-01T20:45:52;8.16;86.12
71942;DHT22;59997;53.300;-6.260;2023-04-01T20:51:13;8.21;85.31
71942;DHT22;59997;53.300;-6.260;2023-04-01T20:53:49;8.30;84.36
71942;DHT22;59997;53.300;-6.260;2023-04-01T20:56:29;8.26;85.10
71942;DHT22;59997;53.300;-6.260;2023-04-01T21:02:32;8.26;84.73
71942;DHT22;59997;53.300;-6.260;2023-04-01T21:08:06;8.31;84.60
71942;DHT22;59997;53.300;-6.260;2023-04-01T21:10:48;8.33;83.98
71942;DHT22;59997;53.300;-6.260;2023-04-01T21:21:55;8.30;84.19
71942;DHT22;59997;53.300;-6.260;2023-04-01T21:32:56;8.33;83.98
71942;DHT22;59997;53.300;-6.260;2023-04-01T21:38:35;8.31;84.13
71942;DHT22;59997;53.300;-6.260;2023-04-01T21:41:27;8.31;84.47
71942;DHT22;59997;53.300;-6.260;2023-04-01T21:52:22;8.34;83.92
71942;DHT22;59997;53.300;-6.260;2023-04-01T21:57:54;8.41;83.57
71942;DHT22;59997;53.300;-6.260;2023-04-01T22:00:38;8.40;83.66
71942;DHT22;59997;53.300;-6.260;2023-04-01T22:14:34;8.48;83.69
71942;DHT22;59997;53.300;-6.260;2023-04-01T22:30:19;8.44;84.07
71942;DHT22;59997;53.300;-6.260;2023-04-01T22:32:48;8.42;84.29
71942;DHT22;59997;53.300;-6.260;2023-04-01T22:40:51;8.41;84.36
71942;DHT22;59997;53.300;-6.260;2023-04-01T22:48:47;8.49;83.92
71942;DHT22;59997;53.300;-6.260;2023-04-01T22:53:57;8.51;84.20
71942;DHT22;59997;53.300;-6.260;2023-04-01T22:57:07;8.48;84.24
71942;DHT22;59997;53.300;-6.260;2023-04-01T23:02:29;8.45;84.69
71942;DHT22;59997;53.300;-6.260;2023-04-01T23:04:59;8.45;84.65
71942;DHT22;59997;53.300;-6.260;2023-04-01T23:10:41;8.48;84.85
71942;DHT22;59997;53.300;-6.260;2023-04-01T23:13:15;8.51;84.66
71942;DHT22;59997;53.300;-6.260;2023-04-01T23:15:42;8.48;84.70
71942;DHT22;59997;53.300;-6.260;2023-04-01T23:18:24;8.44;84.84
71942;DHT22;59997;53.300;-6.260;2023-04-01T23:21:00;8.40;84.66
71942;DHT22;59997;53.300;-6.260;2023-04-01T23:26:15;8.42;84.58
71942;DHT22;59997;53.300;-6.260;2023-04-01T23:28:51;8.45;84.56
71942;DHT22;59997;53.300;-6.260;2023-04-01T23:31:32;8.40;84.47
71942;DHT22;59997;53.300;-6.260;2023-04-01T23:34:21;8.41;84.74
71942;DHT22;59997;53.300;-6.260;2023-04-01T23:36:47;8.35;85.07
71942;DHT22;59997;53.300;-6.260;2023-04-01T23:39:23;8.37;84.83
71942;DHT22;59997;53.300;-6.260;2023-04-01T23:41:53;8.31;84.81
71942;DHT22;59997;53.300;-6.260;2023-04-01T23:44:20;8.31;84.94
71942;DHT22;59997;53.300;-6.260;2023-04-01T23:46:47;8.30;85.19
71942;DHT22;59997;53.300;-6.260;2023-04-01T23:49:21;8.20;85.28
71942;DHT22;59997;53.300;-6.260;2023-04-01T23:52:25;8.19;85.50
71942;DHT22;59997;53.300;-6.260;2023-04-01T23:54:57;8.19;85.25
71942;DHT22;59997;53.300;-6.260;2023-04-01T23:57:30;8.19;85.29
